Wetterdaten: Woche 12.10.15 - 18.10.15 (KW42)
Datum Zeit Temp. I. Temp. A. Feuchte I. Feuchte A. Luftdruck Regen Wind Richtung Sonnenschein UV Solar Taupunkt Windchill Windben
12.10.2015 00:00 18,4 C 1,1 C 35 % 77 % 983,0 hPa 0,0 l/m 0,8 km/h (0 Bft) N 0,00 h 0,0 UV-I 0 W/m -2,4 C 1,1 C 4,0 km/h (1 Bft)
12.10.2015 01:00 18,6 C 0,2 C 38 % 81 % 982,8 hPa 0,0 l/m 0,6 km/h (0 Bft) N 0,00 h 0,0 UV-I 0 W/m -2,7 C 0,2 C 2,4 km/h (1 Bft)
12.10.2015 02:00 18,7 C -0,2 C 39 % 83 % 982,8 hPa 0,0 l/m 2,1 km/h (1 Bft) NO 0,00 h 0,0 UV-I 0 W/m -2,7 C -0,2 C 3,5 km/h (1 Bft)
12.10.2015 03:00 18,6 C -0,7 C 40 % 85 % 982,9 hPa 0,0 l/m 2,1 km/h (1 Bft) NO 0,00 h 0,0 UV-I 0 W/m -3,0 C -0,7 C 3,3 km/h (1 Bft)
12.10.2015 04:00 18,4 C -1,1 C 42 % 86 % 982,9 hPa 60,0 l/m 4,2 km/h (1 Bft) NO 0,00 h 0,0 UV-I 0 W/m -3,1 C -1,1 C 5,9 km/h (2 Bft)
12.10.2015 05:00 18,3 C -1,4 C 42 % 88 % 983,2 hPa 0,0 l/m 1,5 km/h (1 Bft) NO 0,00 h 0,0 UV-I 0 W/m -3,2 C -1,4 C 5,8 km/h (1 Bft)
12.10.2015 06:00 18,2 C -1,7 C 43 % 89 % 983,3 hPa 0,0 l/m 2,0 km/h (1 Bft) NO 0,00 h 0,0 UV-I 0 W/m -3,3 C -1,7 C 5,8 km/h (1 Bft)
12.10.2015 07:00 18,2 C -1,9 C 43 % 89 % 983,6 hPa 0,0 l/m 0,0 km/h (0 Bft) N 0,00 h 0,0 UV-I 10 W/m -3,5 C -1,9 C 2,5 km/h (1 Bft)
12.10.2015 08:00 18,2 C -1,5 C 43 % 89 % 983,8 hPa 0,0 l/m 1,5 km/h (1 Bft) NO 0,00 h 0,0 UV-I 23 W/m -3,1 C -1,5 C 4,8 km/h (1 Bft)
12.10.2015 09:00 18,4 C 0,3 C 41 % 84 % 984,0 hPa 0,0 l/m 2,4 km/h (1 Bft) N-NO 0,00 h 0,8 UV-I 38 W/m -2,1 C 0,3 C 4,7 km/h (1 Bft)
12.10.2015 10:00 19,9 C 5,1 C 39 % 68 % 983,9 hPa 0,0 l/m 3,6 km/h (1 Bft) N-NO 1,17 h 1,8 UV-I 404 W/m -0,3 C 5,1 C 7,5 km/h (2 Bft)
12.10.2015 11:00 21,0 C 8,2 C 36 % 59 % 983,8 hPa 0,0 l/m 4,7 km/h (1 Bft) O-NO 0,93 h 2,3 UV-I 490 W/m 0,6 C 8,1 C 11,3 km/h (2 Bft)
12.10.2015 12:00 22,2 C 9,8 C 31 % 55 % 983,5 hPa 0,0 l/m 5,8 km/h (2 Bft) NO 1,00 h 2,6 UV-I 522 W/m 1,1 C 9,4 C 10,9 km/h (2 Bft)
12.10.2015 13:00 37,0 C 12,6 C 18 % 51 % 982,6 hPa 0,0 l/m 3,4 km/h (1 Bft) O-NO 1,12 h 2,7 UV-I 431 W/m 2,8 C 12,6 C 6,8 km/h (2 Bft)
12.10.2015 14:00 41,1 C 13,1 C 15 % 50 % 981,7 hPa 0,0 l/m 3,2 km/h (1 Bft) NO 0,78 h 2,2 UV-I 466 W/m 2,8 C 13,1 C 9,6 km/h (2 Bft)
12.10.2015 15:00 44,5 C 14,0 C 13 % 50 % 980,6 hPa 0,0 l/m 2,0 km/h (1 Bft) O 1,00 h 1,6 UV-I 384 W/m 3,6 C 14,0 C 10,3 km/h (2 Bft)
12.10.2015 16:00 40,8 C 13,6 C 15 % 51 % 980,5 hPa 0,0 l/m 2,5 km/h (1 Bft) O 0,75 h 0,8 UV-I 213 W/m 3,6 C 13,6 C 9,8 km/h (2 Bft)
12.10.2015 17:00 26,5 C 11,0 C 27 % 59 % 981,7 hPa 0,0 l/m 0,5 km/h (0 Bft) N 0,00 h 0,0 UV-I 51 W/m 3,3 C 11,0 C 6,0 km/h (2 Bft)
12.10.2015 18:00 22,2 C 8,8 C 35 % 67 % 982,0 hPa 0,0 l/m 0,0 km/h (0 Bft) N 0,00 h 0,0 UV-I 11 W/m 3,0 C 8,8 C 2,3 km/h (1 Bft)
12.10.2015 19:00 20,5 C 7,0 C 39 % 73 % 982,3 hPa 0,0 l/m 1,0 km/h (0 Bft) NO 0,00 h 0,0 UV-I 0 W/m 2,6 C 7,0 C 5,8 km/h (1 Bft)
12.10.2015 20:00 20,3 C 6,0 C 42 % 76 % 982,4 hPa 0,0 l/m 2,5 km/h (1 Bft) NO 0,00 h 0,0 UV-I 0 W/m 2,2 C 6,0 C 10,0 km/h (2 Bft)
12.10.2015 21:00 19,9 C 4,8 C 42 % 79 % 982,4 hPa 0,0 l/m 0,7 km/h (0 Bft) N 0,00 h 0,0 UV-I 0 W/m 1,5 C 4,8 C 2,7 km/h (1 Bft)
12.10.2015 22:00 20,1 C 3,4 C 44 % 85 % 982,4 hPa 0,0 l/m 0,0 km/h (0 Bft) N 0,00 h 0,0 UV-I 0 W/m 1,2 C 3,4 C 3,0 km/h (1 Bft)
12.10.2015 23:00 20,9 C 2,9 C 43 % 87 % 982,2 hPa 0,0 l/m 0,7 km/h (0 Bft) N 0,00 h 0,0 UV-I 0 W/m 0,9 C 2,9 C 2,3 km/h (1 Bft)
13.10.2015 00:00 20,9 C 3,0 C 44 % 86 % 982,1 hPa 0,0 l/m 2,5 km/h (1 Bft) NO 0,00 h 0,0 UV-I 0 W/m 0,9 C 3,0 C 5,6 km/h (1 Bft)
13.10.2015 01:00 19,4 C 2,1 C 45 % 89 % 982,0 hPa 0,0 l/m 3,1 km/h (1 Bft) N 0,00 h 0,0 UV-I 0 W/m 0,4 C 2,1 C 7,3 km/h (2 Bft)
13.10.2015 02:00 19,1 C 1,8 C 45 % 90 % 981,9 hPa 0,0 l/m 2,5 km/h (1 Bft) NO 0,00 h 0,0 UV-I 0 W/m 0,2 C 1,8 C 8,3 km/h (2 Bft)
13.10.2015 03:00 18,8 C 1,4 C 45 % 91 % 981,7 hPa 0,0 l/m 1,5 km/h (1 Bft) N-NW 0,00 h 0,0 UV-I 0 W/m 0,1 C 1,4 C 5,8 km/h (1 Bft)
13.10.2015 04:00 18,6 C 0,6 C 45 % 92 % 981,5 hPa 0,0 l/m 2,9 km/h (1 Bft) N-NW 0,00 h 0,0 UV-I 0 W/m -0,5 C 0,6 C 5,1 km/h (1 Bft)
13.10.2015 05:00 18,3 C -0,1 C 45 % 93 % 981,3 hPa 0,0 l/m 1,5 km/h (1 Bft) N-NO 0,00 h 0,0 UV-I 0 W/m -1,0 C -0,1 C 6,3 km/h (2 Bft)
13.10.2015 06:00 18,2 C -0,5 C 45 % 94 % 981,4 hPa 0,0 l/m 2,8 km/h (1 Bft) N-NW 0,00 h 0,0 UV-I 0 W/m -1,4 C -0,5 C 5,3 km/h (1 Bft)
13.10.2015 07:00 18,0 C -0,3 C 46 % 95 % 981,5 hPa 0,0 l/m 0,8 km/h (0 Bft) N-NO 0,00 h 0,0 UV-I 5 W/m -1,0 C -0,3 C 5,8 km/h (1 Bft)
13.10.2015 08:00 18,4 C 0,7 C 46 % 95 % 981,5 hPa 0,0 l/m 1,9 km/h (1 Bft) NO 0,00 h 0,0 UV-I 35 W/m -0,0 C 0,7 C 5,1 km/h (1 Bft)
13.10.2015 09:00 18,6 C 1,4 C 45 % 94 % 981,5 hPa 0,0 l/m 3,0 km/h (1 Bft) NO 0,00 h 0,5 UV-I 90 W/m 0,5 C 1,4 C 12,0 km/h (2 Bft)
13.10.2015 10:00 19,8 C 2,3 C 44 % 91 % 981,4 hPa 0,0 l/m 4,0 km/h (1 Bft) N-NO 0,50 h 1,0 UV-I 204 W/m 1,0 C 2,3 C 13,5 km/h (3 Bft)
13.10.2015 11:00 21,1 C 4,1 C 39 % 85 % 981,1 hPa 0,0 l/m 4,8 km/h (1 Bft) N-NO 1,00 h 1,7 UV-I 388 W/m 1,7 C 4,1 C 13,0 km/h (3 Bft)
13.10.2015 12:00 21,4 C 4,5 C 38 % 82 % 981,1 hPa 0,0 l/m 5,0 km/h (1 Bft) NO 1,00 h 1,6 UV-I 266 W/m 1,7 C 4,5 C 14,3 km/h (3 Bft)
13.10.2015 13:00 30,2 C 6,3 C 27 % 75 % 980,7 hPa 0,0 l/m 7,5 km/h (2 Bft) NO 1,15 h 2,3 UV-I 392 W/m 2,2 C 4,9 C 13,4 km/h (3 Bft)
13.10.2015 14:00 37,3 C 6,8 C 20 % 72 % 979,9 hPa 0,0 l/m 4,8 km/h (1 Bft) NO 0,85 h 2,0 UV-I 392 W/m 2,2 C 6,8 C 14,5 km/h (3 Bft)
13.10.2015 15:00 31,8 C 6,3 C 22 % 75 % 980,1 hPa 0,0 l/m 5,3 km/h (1 Bft) NO 1,00 h 1,1 UV-I 206 W/m 2,1 C 6,1 C 14,0 km/h (3 Bft)
13.10.2015 16:00 25,7 C 5,1 C 29 % 78 % 980,6 hPa 0,0 l/m 5,6 km/h (1 Bft) O-NO 0,25 h 0,6 UV-I 111 W/m 1,5 C 4,5 C 11,4 km/h (2 Bft)
13.10.2015 17:00 21,5 C 3,7 C 37 % 81 % 981,0 hPa 0,0 l/m 5,9 km/h (2 Bft) O-NO 0,00 h 0,0 UV-I 34 W/m 0,8 C 3,0 C 10,4 km/h (2 Bft)
13.10.2015 18:00 20,4 C 2,9 C 40 % 85 % 981,1 hPa 0,0 l/m 4,7 km/h (1 Bft) NO 0,00 h 0,0 UV-I 0 W/m 0,7 C 2,6 C 10,7 km/h (2 Bft)
13.10.2015 19:00 21,3 C 2,5 C 38 % 86 % 981,5 hPa 0,0 l/m 7,7 km/h (2 Bft) NO 0,00 h 0,0 UV-I 0 W/m 0,5 C 1,0 C 11,3 km/h (2 Bft)
13.10.2015 20:00 23,5 C 2,2 C 33 % 87 % 981,7 hPa 0,0 l/m 4,5 km/h (1 Bft) NO 0,00 h 0,0 UV-I 0 W/m 0,4 C 2,1 C 8,1 km/h (2 Bft)
13.10.2015 21:00 24,1 C 1,9 C 33 % 90 % 981,1 hPa 0,0 l/m 5,1 km/h (1 Bft) NO 0,00 h 0,0 UV-I 0 W/m 0,5 C 1,6 C 9,6 km/h (2 Bft)
13.10.2015 22:00 24,2 C 1,7 C 34 % 91 % 981,1 hPa 0,0 l/m 2,5 km/h (1 Bft) NO 0,00 h 0,0 UV-I 0 W/m 0,5 C 1,7 C 11,0 km/h (2 Bft)
13.10.2015 23:00 22,9 C 1,8 C 37 % 93 % 980,8 hPa 0,2 l/m 4,1 km/h (1 Bft) N-NO 0,00 h 0,0 UV-I 0 W/m 0,8 C 1,8 C 7,8 km/h (2 Bft)
14.10.2015 00:00 21,9 C 1,8 C 39 % 95 % 980,9 hPa 1,2 l/m 1,0 km/h (0 Bft) N-NO 0,00 h 0,0 UV-I 0 W/m 1,0 C 1,8 C 5,5 km/h (1 Bft)
14.10.2015 01:00 20,7 C 1,7 C 41 % 95 % 981,3 hPa 2,0 l/m 1,9 km/h (1 Bft) N-NW 0,00 h 0,0 UV-I 0 W/m 1,0 C 1,7 C 4,2 km/h (1 Bft)
14.10.2015 02:00 19,7 C 1,3 C 43 % 96 % 981,4 hPa 2,2 l/m 1,8 km/h (1 Bft) N-NO 0,00 h 0,0 UV-I 0 W/m 0,7 C 1,3 C 6,3 km/h (2 Bft)
14.10.2015 03:00 19,3 C 1,1 C 43 % 96 % 980,9 hPa 1,2 l/m 1,5 km/h (1 Bft) N 0,00 h 0,0 UV-I 0 W/m 0,5 C 1,1 C 6,0 km/h (2 Bft)
14.10.2015 04:00 19,3 C 1,2 C 43 % 97 % 979,9 hPa 0,2 l/m 2,0 km/h (1 Bft) N-NO 0,00 h 0,0 UV-I 0 W/m 0,7 C 1,2 C 8,0 km/h (2 Bft)
14.10.2015 05:00 19,1 C 1,3 C 43 % 97 % 980,3 hPa 0,4 l/m 0,0 km/h (0 Bft) N 0,00 h 0,0 UV-I 0 W/m 0,9 C 1,3 C 3,0 km/h (1 Bft)
14.10.2015 06:00 19,1 C 1,3 C 43 % 97 % 980,3 hPa 0,0 l/m 0,0 km/h (0 Bft) N 0,00 h 0,0 UV-I 0 W/m 0,9 C 1,3 C 3,5 km/h (1 Bft)
14.10.2015 07:00 19,2 C 1,1 C 43 % 97 % 980,5 hPa 0,0 l/m 0,0 km/h (0 Bft) N 0,00 h 0,0 UV-I 0 W/m 0,6 C 1,1 C 0,0 km/h (0 Bft)
14.10.2015 08:00 19,3 C 0,9 C 43 % 97 % 980,8 hPa 0,0 l/m 0,0 km/h (0 Bft) N 0,00 h 0,0 UV-I 11 W/m 0,4 C 0,9 C 0,0 km/h (0 Bft)
14.10.2015 09:00 19,6 C 1,2 C 42 % 97 % 980,8 hPa 0,0 l/m 0,0 km/h (0 Bft) N 0,00 h 0,5 UV-I 93 W/m 0,8 C 1,2 C 0,5 km/h (0 Bft)
14.10.2015 10:00 20,0 C 2,0 C 39 % 97 % 981,2 hPa 0,6 l/m 0,0 km/h (0 Bft) N 0,00 h 0,0 UV-I 55 W/m 1,6 C 2,0 C 2,0 km/h (1 Bft)
14.10.2015 11:00 20,5 C 2,7 C 41 % 97 % 981,2 hPa 0,4 l/m 0,0 km/h (0 Bft) N 0,00 h 0,5 UV-I 82 W/m 2,2 C 2,7 C 1,4 km/h (1 Bft)
14.10.2015 12:00 20,6 C 3,3 C 40 % 97 % 981,1 hPa 0,0 l/m 0,3 km/h (0 Bft) N 0,28 h 0,8 UV-I 128 W/m 2,8 C 3,3 C 1,5 km/h (1 Bft)
14.10.2015 13:00 21,4 C 4,8 C 37 % 95 % 981,0 hPa 0,0 l/m 0,6 km/h (0 Bft) N-NO 0,82 h 1,1 UV-I 177 W/m 4,1 C 4,8 C 2,8 km/h (1 Bft)
14.10.2015 14:00 21,2 C 4,9 C 40 % 93 % 981,1 hPa 60,0 l/m 0,3 km/h (0 Bft) N 0,00 h 0,5 UV-I 79 W/m 3,9 C 4,9 C 2,1 km/h (1 Bft)
14.10.2015 15:00 20,9 C 5,0 C 40 % 93 % 981,1 hPa 0,0 l/m 1,9 km/h (1 Bft) NO 0,58 h 0,8 UV-I 92 W/m 4,0 C 5,0 C 4,0 km/h (1 Bft)
14.10.2015 16:00 20,6 C 4,9 C 41 % 93 % 981,3 hPa 0,0 l/m 1,3 km/h (1 Bft) NO 0,00 h 0,0 UV-I 29 W/m 3,9 C 4,9 C 3,1 km/h (1 Bft)
14.10.2015 17:00 20,5 C 4,8 C 42 % 94 % 981,5 hPa 0,0 l/m 0,5 km/h (0 Bft) N 0,00 h 0,0 UV-I 15 W/m 3,8 C 4,8 C 4,8 km/h (1 Bft)
14.10.2015 18:00 20,4 C 4,5 C 44 % 94 % 981,6 hPa 0,0 l/m 2,6 km/h (1 Bft) NO 0,00 h 0,0 UV-I 0 W/m 3,6 C 4,5 C 7,2 km/h (2 Bft)
14.10.2015 19:00 19,9 C 4,1 C 44 % 95 % 981,6 hPa 60,0 l/m 1,3 km/h (1 Bft) NO 0,00 h 0,0 UV-I 0 W/m 3,4 C 4,1 C 4,3 km/h (1 Bft)
14.10.2015 20:00 19,5 C 3,9 C 44 % 95 % 982,1 hPa 0,0 l/m 1,8 km/h (1 Bft) N-NO 0,00 h 0,0 UV-I 0 W/m 3,2 C 3,9 C 7,3 km/h (2 Bft)
14.10.2015 21:00 19,7 C 3,7 C 44 % 95 % 981,7 hPa 0,0 l/m 4,0 km/h (1 Bft) N 0,00 h 0,0 UV-I 0 W/m 3,0 C 3,7 C 6,7 km/h (2 Bft)
14.10.2015 22:00 20,1 C 3,6 C 44 % 96 % 981,9 hPa 0,0 l/m 2,3 km/h (1 Bft) NO 0,00 h 0,0 UV-I 0 W/m 3,0 C 3,6 C 8,5 km/h (2 Bft)
14.10.2015 23:00 20,8 C 3,7 C 44 % 96 % 981,8 hPa 0,0 l/m 1,3 km/h (1 Bft) N 0,00 h 0,0 UV-I 0 W/m 3,1 C 3,7 C 7,0 km/h (2 Bft)
15.10.2015 00:00 20,8 C 3,6 C 44 % 96 % 981,5 hPa 0,0 l/m 2,2 km/h (1 Bft) N-NW 0,00 h 0,0 UV-I 0 W/m 3,0 C 3,6 C 5,0 km/h (1 Bft)
15.10.2015 01:00 20,5 C 3,5 C 44 % 96 % 981,0 hPa 0,0 l/m 2,5 km/h (1 Bft) N-NO 0,00 h 0,0 UV-I 0 W/m 2,9 C 3,5 C 8,8 km/h (2 Bft)
15.10.2015 02:00 19,7 C 3,4 C 45 % 96 % 980,6 hPa 0,2 l/m 3,7 km/h (1 Bft) N-NW 0,00 h 0,0 UV-I 0 W/m 2,8 C 3,4 C 8,0 km/h (2 Bft)
15.10.2015 03:00 19,6 C 3,3 C 45 % 97 % 979,6 hPa 0,4 l/m 3,3 km/h (1 Bft) N 0,00 h 0,0 UV-I 0 W/m 2,8 C 3,3 C 10,2 km/h (2 Bft)
15.10.2015 04:00 19,3 C 3,0 C 45 % 97 % 978,7 hPa 0,6 l/m 3,0 km/h (1 Bft) N 0,00 h 0,0 UV-I 0 W/m 2,5 C 3,0 C 10,3 km/h (2 Bft)
15.10.2015 05:00 19,3 C 2,8 C 45 % 97 % 978,1 hPa 0,4 l/m 4,0 km/h (1 Bft) NO 0,00 h 0,0 UV-I 0 W/m 2,4 C 2,8 C 13,0 km/h (3 Bft)
15.10.2015 06:00 19,3 C 2,7 C 44 % 97 % 977,6 hPa 0,6 l/m 3,5 km/h (1 Bft) NO 0,00 h 0,0 UV-I 0 W/m 2,3 C 2,7 C 11,5 km/h (2 Bft)
15.10.2015 07:00 19,2 C 2,7 C 45 % 97 % 977,0 hPa 0,4 l/m 3,5 km/h (1 Bft) N-NO 0,00 h 0,0 UV-I 12 W/m 2,3 C 2,7 C 12,3 km/h (3 Bft)
15.10.2015 08:00 19,8 C 3,1 C 44 % 97 % 976,7 hPa 0,6 l/m 6,8 km/h (2 Bft) N 0,00 h 0,0 UV-I 40 W/m 2,7 C 1,9 C 10,6 km/h (2 Bft)
15.10.2015 09:00 19,7 C 3,4 C 44 % 97 % 976,9 hPa 0,2 l/m 2,0 km/h (1 Bft) NO 0,00 h 0,0 UV-I 39 W/m 3,0 C 3,4 C 9,5 km/h (2 Bft)
15.10.2015 10:00 20,4 C 3,8 C 43 % 97 % 977,0 hPa 0,0 l/m 2,0 km/h (1 Bft) N-NO 0,00 h 0,7 UV-I 116 W/m 3,4 C 3,8 C 9,0 km/h (2 Bft)
15.10.2015 11:00 21,0 C 4,4 C 41 % 97 % 976,8 hPa 0,0 l/m 3,8 km/h (1 Bft) N-NO 0,00 h 0,8 UV-I 113 W/m 4,0 C 4,4 C 8,1 km/h (2 Bft)
15.10.2015 12:00 20,5 C 5,1 C 42 % 97 % 976,6 hPa 0,0 l/m 1,5 km/h (1 Bft) NO 0,00 h 0,6 UV-I 84 W/m 4,6 C 5,1 C 8,8 km/h (2 Bft)
15.10.2015 13:00 20,6 C 5,4 C 42 % 97 % 976,8 hPa 0,0 l/m 0,3 km/h (0 Bft) N 0,00 h 0,4 UV-I 67 W/m 4,9 C 5,4 C 2,4 km/h (1 Bft)
15.10.2015 14:00 20,4 C 5,6 C 43 % 96 % 977,2 hPa 0,0 l/m 0,0 km/h (0 Bft) N 0,00 h 0,0 UV-I 57 W/m 5,1 C 5,6 C 2,3 km/h (1 Bft)
15.10.2015 15:00 20,4 C 6,0 C 43 % 96 % 977,1 hPa 0,0 l/m 1,5 km/h (1 Bft) W-SW 0,00 h 0,0 UV-I 46 W/m 5,5 C 6,0 C 2,9 km/h (1 Bft)
15.10.2015 16:00 20,4 C 5,7 C 44 % 97 % 977,4 hPa 0,0 l/m 1,0 km/h (0 Bft) N 0,00 h 0,0 UV-I 19 W/m 5,2 C 5,7 C 4,5 km/h (1 Bft)
15.10.2015 17:00 20,7 C 5,5 C 44 % 97 % 977,2 hPa 0,2 l/m 0,2 km/h (0 Bft) N 0,00 h 0,0 UV-I 13 W/m 5,1 C 5,5 C 0,9 km/h (0 Bft)
15.10.2015 18:00 20,8 C 5,5 C 44 % 97 % 977,6 hPa 0,0 l/m 0,0 km/h (0 Bft) SW 0,00 h 0,0 UV-I 0 W/m 5,0 C 5,5 C 2,3 km/h (1 Bft)
15.10.2015 19:00 20,7 C 5,1 C 44 % 97 % 978,3 hPa 0,0 l/m 3,5 km/h (1 Bft) W-SW 0,00 h 0,0 UV-I 0 W/m 4,7 C 5,1 C 10,8 km/h (2 Bft)
15.10.2015 20:00 22,9 C 4,5 C 41 % 98 % 978,5 hPa 0,0 l/m 1,3 km/h (1 Bft) W-SW 0,00 h 0,0 UV-I 0 W/m 4,2 C 4,5 C 5,8 km/h (1 Bft)
15.10.2015 21:00 24,1 C 4,4 C 38 % 97 % 978,9 hPa 0,0 l/m 1,8 km/h (1 Bft) S 0,00 h 0,0 UV-I 0 W/m 4,0 C 4,4 C 6,3 km/h (2 Bft)
15.10.2015 22:00 24,7 C 4,4 C 37 % 98 % 979,4 hPa 0,2 l/m 1,5 km/h (1 Bft) W-SW 0,00 h 0,0 UV-I 0 W/m 4,2 C 4,4 C 6,3 km/h (2 Bft)
15.10.2015 23:00 25,6 C 4,1 C 36 % 98 % 979,7 hPa 0,0 l/m 3,3 km/h (1 Bft) W 0,00 h 0,0 UV-I 0 W/m 3,8 C 4,1 C 8,8 km/h (2 Bft)
16.10.2015 00:00 25,8 C 3,8 C 36 % 98 % 979,6 hPa 0,0 l/m 2,8 km/h (1 Bft) W-SW 0,00 h 0,0 UV-I 0 W/m 3,5 C 3,8 C 8,0 km/h (2 Bft)
16.10.2015 01:00 24,5 C 3,8 C 37 % 98 % 979,9 hPa 0,0 l/m 2,0 km/h (1 Bft) W-SW 0,00 h 0,0 UV-I 0 W/m 3,5 C 3,8 C 6,5 km/h (2 Bft)
16.10.2015 02:00 23,6 C 3,7 C 38 % 98 % 980,1 hPa 0,2 l/m 1,5 km/h (1 Bft) W-SW 0,00 h 0,0 UV-I 0 W/m 3,4 C 3,7 C 5,8 km/h (1 Bft)
16.10.2015 03:00 24,1 C 3,5 C 37 % 99 % 980,1 hPa 0,0 l/m 5,4 km/h (1 Bft) W-SW 0,00 h 0,0 UV-I 0 W/m 3,3 C 3,4 C 9,0 km/h (2 Bft)
16.10.2015 04:00 24,3 C 3,5 C 36 % 99 % 980,1 hPa 0,0 l/m 2,8 km/h (1 Bft) W-SW 0,00 h 0,0 UV-I 0 W/m 3,3 C 3,5 C 7,5 km/h (2 Bft)
16.10.2015 05:00 24,4 C 3,4 C 36 % 98 % 980,0 hPa 0,0 l/m 2,3 km/h (1 Bft) W-SW 0,00 h 0,0 UV-I 0 W/m 3,1 C 3,4 C 7,8 km/h (2 Bft)
16.10.2015 06:00 24,4 C 3,4 C 36 % 99 % 980,2 hPa 0,0 l/m 2,5 km/h (1 Bft) W-SW 0,00 h 0,0 UV-I 0 W/m 3,2 C 3,4 C 7,0 km/h (2 Bft)
16.10.2015 07:00 24,5 C 3,3 C 36 % 99 % 980,5 hPa 0,0 l/m 1,5 km/h (1 Bft) W-SW 0,00 h 0,0 UV-I 0 W/m 3,2 C 3,3 C 6,3 km/h (2 Bft)
16.10.2015 08:00 24,4 C 3,4 C 36 % 99 % 981,0 hPa 0,2 l/m 1,0 km/h (0 Bft) N 0,00 h 0,0 UV-I 16 W/m 3,3 C 3,4 C 5,5 km/h (1 Bft)
16.10.2015 09:00 25,2 C 3,7 C 35 % 99 % 981,3 hPa 0,2 l/m 1,5 km/h (1 Bft) W-SW 0,00 h 0,0 UV-I 68 W/m 3,6 C 3,7 C 5,5 km/h (1 Bft)
16.10.2015 10:00 25,1 C 4,0 C 32 % 99 % 981,6 hPa 0,0 l/m 1,0 km/h (0 Bft) W-SW 0,00 h 0,0 UV-I 71 W/m 3,9 C 4,0 C 5,5 km/h (1 Bft)
16.10.2015 11:00 24,5 C 4,4 C 32 % 99 % 981,9 hPa 0,0 l/m 1,8 km/h (1 Bft) W-SW 0,00 h 0,6 UV-I 94 W/m 4,2 C 4,4 C 5,8 km/h (1 Bft)
16.10.2015 12:00 23,7 C 4,9 C 50 % 97 % 981,7 hPa 16,2 l/m 0,2 km/h (0 Bft) W 0,25 h 0,5 UV-I 74 W/m 4,5 C 4,9 C 2,9 km/h (1 Bft)
16.10.2015 13:00 23,5 C 5,1 C 52 % 97 % 981,7 hPa 0,0 l/m 0,0 km/h (0 Bft) N 0,00 h 0,5 UV-I 66 W/m 4,7 C 5,1 C 4,3 km/h (1 Bft)
16.10.2015 20:00 24,2 C 4,9 C 53 % 97 % 1076,7 hPa 0,0 l/m 0,0 km/h (0 Bft) N 0,00 h 0,0 UV-I 0 W/m 4,5 C 4,9 C 3,4 km/h (1 Bft)
16.10.2015 21:00 24,2 C 4,9 C 54 % 97 % 1077,0 hPa 0,0 l/m 0,0 km/h (0 Bft) N 0,00 h 0,0 UV-I 0 W/m 4,4 C 4,9 C 3,1 km/h (1 Bft)
16.10.2015 22:00 23,8 C 4,8 C 54 % 97 % 1077,2 hPa 0,0 l/m 0,1 km/h (0 Bft) N 0,00 h 0,0 UV-I 0 W/m 4,4 C 4,8 C 2,5 km/h (1 Bft)
16.10.2015 23:00 23,5 C 4,8 C 54 % 97 % 1077,2 hPa 0,2 l/m 0,0 km/h (0 Bft) N 0,00 h 0,0 UV-I 0 W/m 4,4 C 4,8 C 2,8 km/h (1 Bft)
17.10.2015 00:00 23,3 C 4,7 C 54 % 97 % 1077,3 hPa 0,0 l/m 0,0 km/h (0 Bft) N 0,00 h 0,0 UV-I 0 W/m 4,3 C 4,7 C 1,0 km/h (0 Bft)
17.10.2015 01:00 23,2 C 4,7 C 54 % 97 % 1077,2 hPa 0,0 l/m 0,0 km/h (0 Bft) N 0,00 h 0,0 UV-I 0 W/m 4,3 C 4,7 C 2,0 km/h (1 Bft)
17.10.2015 02:00 23,1 C 4,6 C 54 % 97 % 1077,1 hPa 0,2 l/m 0,0 km/h (0 Bft) N 0,00 h 0,0 UV-I 0 W/m 4,2 C 4,6 C 1,0 km/h (0 Bft)
17.10.2015 03:00 23,0 C 4,5 C 54 % 97 % 1077,0 hPa 0,2 l/m 0,0 km/h (0 Bft) N 0,00 h 0,0 UV-I 0 W/m 4,0 C 4,5 C 1,8 km/h (1 Bft)
17.10.2015 04:00 22,9 C 4,3 C 54 % 97 % 1076,9 hPa 0,4 l/m 0,0 km/h (0 Bft) N 0,00 h 0,0 UV-I 0 W/m 3,8 C 4,3 C 1,6 km/h (1 Bft)
17.10.2015 05:00 22,8 C 4,2 C 54 % 96 % 1077,0 hPa 0,0 l/m 0,0 km/h (0 Bft) N 0,00 h 0,0 UV-I 0 W/m 3,6 C 4,2 C 0,6 km/h (0 Bft)
17.10.2015 06:00 22,8 C 4,2 C 54 % 96 % 1077,1 hPa 0,0 l/m 0,0 km/h (0 Bft) N 0,00 h 0,0 UV-I 0 W/m 3,6 C 4,2 C 1,2 km/h (1 Bft)
17.10.2015 07:00 22,8 C 4,2 C 52 % 96 % 1077,2 hPa 0,0 l/m 0,0 km/h (0 Bft) N 0,00 h 0,0 UV-I 0 W/m 3,7 C 4,2 C 1,1 km/h (1 Bft)
17.10.2015 08:00 23,0 C 4,3 C 53 % 97 % 1077,6 hPa 0,0 l/m 0,0 km/h (0 Bft) N 0,00 h 0,0 UV-I 13 W/m 3,8 C 4,3 C 3,4 km/h (1 Bft)
17.10.2015 09:00 23,0 C 4,4 C 54 % 97 % 1077,8 hPa 0,0 l/m 0,8 km/h (0 Bft) S-SW 0,00 h 0,0 UV-I 36 W/m 4,0 C 4,4 C 7,4 km/h (2 Bft)
17.10.2015 10:00 23,0 C 4,6 C 54 % 97 % 1078,0 hPa 0,0 l/m 2,1 km/h (1 Bft) S-SW 0,00 h 0,6 UV-I 67 W/m 4,1 C 4,6 C 9,5 km/h (2 Bft)
17.10.2015 11:00 23,3 C 4,9 C 55 % 95 % 1078,1 hPa 0,0 l/m 0,9 km/h (0 Bft) S-SW 0,00 h 0,6 UV-I 61 W/m 4,2 C 4,9 C 6,0 km/h (2 Bft)
17.10.2015 12:00 23,6 C 5,6 C 56 % 91 % 1078,1 hPa 0,0 l/m 0,2 km/h (0 Bft) N 0,28 h 1,0 UV-I 144 W/m 4,3 C 5,6 C 4,2 km/h (1 Bft)
17.10.2015 13:00 23,6 C 5,8 C 55 % 91 % 1077,8 hPa 0,0 l/m 0,7 km/h (0 Bft) S 0,20 h 1,0 UV-I 86 W/m 4,4 C 5,8 C 6,1 km/h (2 Bft)
17.10.2015 14:00 23,6 C 5,8 C 54 % 91 % 1077,8 hPa 0,0 l/m 0,0 km/h (0 Bft) N 0,00 h 0,6 UV-I 89 W/m 4,4 C 5,8 C 2,9 km/h (1 Bft)
17.10.2015 15:00 23,6 C 6,1 C 53 % 89 % 1077,8 hPa 0,0 l/m 0,1 km/h (0 Bft) N 0,00 h 0,0 UV-I 58 W/m 4,5 C 6,1 C 3,9 km/h (1 Bft)
17.10.2015 16:00 22,8 C 6,2 C 47 % 90 % 1077,9 hPa 0,0 l/m 0,0 km/h (0 Bft) N 0,00 h 0,0 UV-I 43 W/m 4,6 C 6,2 C 0,3 km/h (0 Bft)
17.10.2015 17:00 23,2 C 5,9 C 50 % 90 % 1077,9 hPa 0,0 l/m 0,0 km/h (0 Bft) N 0,00 h 0,0 UV-I 18 W/m 4,4 C 5,9 C 0,0 km/h (0 Bft)
17.10.2015 18:00 23,6 C 5,8 C 52 % 91 % 1078,1 hPa 0,0 l/m 0,0 km/h (0 Bft) N 0,00 h 0,0 UV-I 0 W/m 4,5 C 5,8 C 0,0 km/h (0 Bft)
17.10.2015 19:00 23,8 C 5,6 C 52 % 92 % 1078,1 hPa 0,0 l/m 0,0 km/h (0 Bft) N 0,00 h 0,0 UV-I 0 W/m 4,5 C 5,6 C 0,0 km/h (0 Bft)
17.10.2015 20:00 23,7 C 5,3 C 53 % 93 % 1078,1 hPa 0,0 l/m 0,0 km/h (0 Bft) N 0,00 h 0,0 UV-I 0 W/m 4,3 C 5,3 C 0,0 km/h (0 Bft)
17.10.2015 21:00 23,1 C 5,3 C 55 % 94 % 1078,1 hPa 0,0 l/m 0,0 km/h (0 Bft) N 0,00 h 0,0 UV-I 0 W/m 4,4 C 5,3 C 0,0 km/h (0 Bft)
17.10.2015 22:00 22,8 C 5,2 C 56 % 94 % 1078,1 hPa 0,0 l/m 0,0 km/h (0 Bft) N 0,00 h 0,0 UV-I 0 W/m 4,3 C 5,2 C 0,0 km/h (0 Bft)
17.10.2015 23:00 23,0 C 5,0 C 56 % 95 % 1077,9 hPa 0,0 l/m 0,0 km/h (0 Bft) N 0,00 h 0,0 UV-I 0 W/m 4,3 C 5,0 C 0,0 km/h (0 Bft)
18.10.2015 00:00 23,4 C 4,7 C 54 % 95 % 1077,8 hPa 0,0 l/m 0,0 km/h (0 Bft) N 0,00 h 0,0 UV-I 0 W/m 4,0 C 4,7 C 0,0 km/h (0 Bft)
18.10.2015 01:00 23,2 C 4,3 C 54 % 95 % 1077,8 hPa 0,0 l/m 0,0 km/h (0 Bft) N 0,00 h 0,0 UV-I 0 W/m 3,5 C 4,3 C 0,0 km/h (0 Bft)
18.10.2015 02:00 23,1 C 3,7 C 54 % 95 % 1077,9 hPa 0,0 l/m 0,0 km/h (0 Bft) N 0,00 h 0,0 UV-I 0 W/m 3,0 C 3,7 C 0,0 km/h (0 Bft)
18.10.2015 03:00 23,0 C 3,5 C 54 % 96 % 1077,6 hPa 0,0 l/m 0,0 km/h (0 Bft) N 0,00 h 0,0 UV-I 0 W/m 2,9 C 3,5 C 0,0 km/h (0 Bft)
18.10.2015 04:00 22,9 C 3,2 C 54 % 96 % 1077,4 hPa 0,0 l/m 0,0 km/h (0 Bft) N 0,00 h 0,0 UV-I 0 W/m 2,7 C 3,2 C 0,0 km/h (0 Bft)
18.10.2015 05:00 22,8 C 3,3 C 53 % 96 % 1077,2 hPa 0,0 l/m 0,0 km/h (0 Bft) N 0,00 h 0,0 UV-I 0 W/m 2,8 C 3,3 C 0,0 km/h (0 Bft)
18.10.2015 06:00 22,8 C 3,3 C 53 % 97 % 1077,3 hPa 0,0 l/m 0,0 km/h (0 Bft) N 0,00 h 0,0 UV-I 0 W/m 2,8 C 3,3 C 0,0 km/h (0 Bft)
18.10.2015 07:00 22,8 C 3,6 C 53 % 97 % 1077,3 hPa 0,0 l/m 0,0 km/h (0 Bft) N 0,00 h 0,0 UV-I 10 W/m 3,1 C 3,6 C 0,0 km/h (0 Bft)
18.10.2015 08:00 22,8 C 3,8 C 53 % 97 % 1077,6 hPa 0,2 l/m 0,0 km/h (0 Bft) N 0,00 h 0,0 UV-I 11 W/m 3,3 C 3,8 C 0,4 km/h (0 Bft)
18.10.2015 09:00 23,1 C 4,1 C 54 % 97 % 1077,8 hPa 0,0 l/m 0,0 km/h (0 Bft) N 0,00 h 0,0 UV-I 38 W/m 3,7 C 4,1 C 0,0 km/h (0 Bft)
18.10.2015 10:00 23,2 C 4,8 C 54 % 97 % 1078,0 hPa 0,0 l/m 0,0 km/h (0 Bft) N 0,00 h 0,0 UV-I 51 W/m 4,4 C 4,8 C 0,5 km/h (0 Bft)
18.10.2015 11:00 23,3 C 5,5 C 54 % 97 % 1077,7 hPa 0,0 l/m 0,3 km/h (0 Bft) N 0,00 h 0,6 UV-I 89 W/m 5,1 C 5,5 C 4,7 km/h (1 Bft)
18.10.2015 12:00 23,2 C 6,3 C 54 % 93 % 1077,5 hPa 0,0 l/m 0,7 km/h (0 Bft) N 0,00 h 0,7 UV-I 95 W/m 5,2 C 6,3 C 5,5 km/h (1 Bft)
18.10.2015 13:00 23,3 C 6,5 C 53 % 91 % 1077,1 hPa 0,0 l/m 0,1 km/h (0 Bft) N 0,00 h 0,6 UV-I 88 W/m 5,1 C 6,5 C 4,1 km/h (1 Bft)
18.10.2015 14:00 23,3 C 6,7 C 51 % 88 % 1076,8 hPa 0,0 l/m 0,1 km/h (0 Bft) N 0,00 h 0,6 UV-I 79 W/m 4,9 C 6,7 C 3,9 km/h (1 Bft)
18.10.2015 15:00 23,2 C 6,5 C 50 % 89 % 1076,9 hPa 0,0 l/m 0,0 km/h (0 Bft) N 0,00 h 0,0 UV-I 22 W/m 4,8 C 6,5 C 1,0 km/h (0 Bft)
18.10.2015 16:00 22,9 C 6,5 C 50 % 90 % 1077,1 hPa 0,0 l/m 0,0 km/h (0 Bft) N 0,00 h 0,0 UV-I 14 W/m 5,0 C 6,5 C 2,1 km/h (1 Bft)
18.10.2015 17:00 22,8 C 6,3 C 51 % 92 % 1077,3 hPa 0,0 l/m 0,0 km/h (0 Bft) N 0,00 h 0,0 UV-I 6 W/m 5,0 C 6,3 C 4,3 km/h (1 Bft)
18.10.2015 18:00 23,2 C 6,1 C 53 % 92 % 1077,3 hPa 0,0 l/m 0,0 km/h (0 Bft) N 0,00 h 0,0 UV-I 0 W/m 5,0 C 6,1 C 1,2 km/h (1 Bft)
18.10.2015 19:00 23,2 C 5,9 C 53 % 93 % 1077,5 hPa 0,0 l/m 0,0 km/h (0 Bft) N 0,00 h 0,0 UV-I 0 W/m 4,9 C 5,9 C 0,0 km/h (0 Bft)
18.10.2015 20:00 22,6 C 5,8 C 53 % 94 % 1077,8 hPa 0,0 l/m 0,0 km/h (0 Bft) N 0,00 h 0,0 UV-I 0 W/m 4,9 C 5,8 C 0,0 km/h (0 Bft)
18.10.2015 21:00 22,6 C 5,8 C 54 % 95 % 1078,0 hPa 0,0 l/m 0,0 km/h (0 Bft) N 0,00 h 0,0 UV-I 0 W/m 5,0 C 5,8 C 0,0 km/h (0 Bft)
18.10.2015 22:00 22,6 C 5,7 C 55 % 95 % 1078,0 hPa 0,0 l/m 0,0 km/h (0 Bft) N 0,00 h 0,0 UV-I 0 W/m 4,9 C 5,7 C 0,0 km/h (0 Bft)
18.10.2015 23:00 22,3 C 5,6 C 55 % 95 % 1078,2 hPa 0,0 l/m 0,0 km/h (0 Bft) N 0,00 h 0,0 UV-I 0 W/m 4,8 C 5,6 C 0,0 km/h (0 Bft)
Min-Datum _ 13.10.15 12.10.15 12.10.15 12.10.15 15.10.15 - 12.10.15 - - - - 12.10.15 12.10.15 12.10.15
_ Min-Zeit 07:15 07:30 14:45 13:56 12:30 - 00:45 - - - - 07:30 07:30 01:31
Minimum _ 18,0 C -2,1 C 13 % 49 % 976,5 hPa - 0,0 km/h (0 Bft) - - - - -3,7 C -2,1 C 0,0 km/h (0 Bft)
Max-Datum _ 12.10.15 12.10.15 17.10.15 16.10.15 18.10.15 12.10.15 13.10.15 - 12.10.15 12.10.15 12.10.15 15.10.15 12.10.15 13.10.15
_ Max-Zeit 15:45 15:45 12:21 03:30 23:28 04:30 13:49 - 10:00 13:15 13:00 15:30 15:45 14:30
Maximum _ 45,0 C 14,6 C 56 % 99 % 1078,3 hPa 60,0 l/m 10,0 km/h
NO (2 Bft)
- 0,25 h 2,8 UV-I 536 W/m 5,7 C 14,6 C 18,0 km/h
NO (3 Bft)
Durchschnitt _ 22,4 C 4,1 C 44 % 91 % 1011,9 hPa #210,2 l/m 1,6 km/h (1 Bft) NO #14:55 h 1,1 UV-I 113 W/m 2,6 C 4,0 C 5,1 km/h (1 Bft)